sensor_id;sensor_type;location;lat;lon;timestamp;P1;durP1;ratioP1;P2;durP2;ratioP2
57593;SDS011;43423;46.510;6.686;2023-12-28T00:00:05;6.22;;;3.83;;
57593;SDS011;43423;46.510;6.686;2023-12-28T00:02:31;6.05;;;3.58;;
57593;SDS011;43423;46.510;6.686;2023-12-28T00:04:57;6.68;;;4.13;;
57593;SDS011;43423;46.510;6.686;2023-12-28T00:07:22;7.13;;;3.75;;
57593;SDS011;43423;46.510;6.686;2023-12-28T00:09:48;6.07;;;3.80;;
57593;SDS011;43423;46.510;6.686;2023-12-28T00:12:14;6.63;;;3.92;;
57593;SDS011;43423;46.510;6.686;2023-12-28T00:14:39;10.00;;;4.07;;
57593;SDS011;43423;46.510;6.686;2023-12-28T00:17:05;6.90;;;3.72;;
57593;SDS011;43423;46.510;6.686;2023-12-28T00:19:30;7.43;;;3.60;;
57593;SDS011;43423;46.510;6.686;2023-12-28T00:21:56;7.63;;;4.05;;
57593;SDS011;43423;46.510;6.686;2023-12-28T00:24:22;6.55;;;4.10;;
57593;SDS011;43423;46.510;6.686;2023-12-28T00:26:47;7.50;;;3.83;;
57593;SDS011;43423;46.510;6.686;2023-12-28T00:29:13;6.72;;;3.95;;
57593;SDS011;43423;46.510;6.686;2023-12-28T00:31:39;7.68;;;3.80;;
57593;SDS011;43423;46.510;6.686;2023-12-28T00:34:04;6.20;;;4.45;;
57593;SDS011;43423;46.510;6.686;2023-12-28T00:36:30;6.40;;;3.20;;
57593;SDS011;43423;46.510;6.686;2023-12-28T00:38:56;6.50;;;3.88;;
57593;SDS011;43423;46.510;6.686;2023-12-28T00:41:22;7.10;;;3.80;;
57593;SDS011;43423;46.510;6.686;2023-12-28T00:43:48;8.02;;;4.03;;
57593;SDS011;43423;46.510;6.686;2023-12-28T00:46:14;7.50;;;3.35;;
57593;SDS011;43423;46.510;6.686;2023-12-28T00:48:39;8.35;;;4.57;;
57593;SDS011;43423;46.510;6.686;2023-12-28T00:51:05;5.75;;;3.67;;
57593;SDS011;43423;46.510;6.686;2023-12-28T00:53:30;8.73;;;3.67;;
57593;SDS011;43423;46.510;6.686;2023-12-28T00:55:56;8.23;;;3.63;;
57593;SDS011;43423;46.510;6.686;2023-12-28T00:58:22;10.02;;;3.90;;
57593;SDS011;43423;46.510;6.686;2023-12-28T01:00:47;6.70;;;4.00;;
57593;SDS011;43423;46.510;6.686;2023-12-28T01:03:13;6.32;;;3.10;;
57593;SDS011;43423;46.510;6.686;2023-12-28T01:05:39;8.20;;;3.95;;
57593;SDS011;43423;46.510;6.686;2023-12-28T01:08:04;8.05;;;3.95;;
57593;SDS011;43423;46.510;6.686;2023-12-28T01:10:31;9.23;;;3.83;;
57593;SDS011;43423;46.510;6.686;2023-12-28T01:12:56;7.63;;;4.15;;
57593;SDS011;43423;46.510;6.686;2023-12-28T01:15:22;6.88;;;3.70;;
57593;SDS011;43423;46.510;6.686;2023-12-28T01:17:47;8.35;;;4.45;;
57593;SDS011;43423;46.510;6.686;2023-12-28T01:20:13;7.05;;;4.50;;
57593;SDS011;43423;46.510;6.686;2023-12-28T01:22:39;9.80;;;5.10;;
57593;SDS011;43423;46.510;6.686;2023-12-28T01:25:05;7.55;;;4.07;;
57593;SDS011;43423;46.510;6.686;2023-12-28T01:27:30;8.82;;;4.25;;
57593;SDS011;43423;46.510;6.686;2023-12-28T01:29:56;9.32;;;4.20;;
57593;SDS011;43423;46.510;6.686;2023-12-28T01:32:22;12.63;;;4.65;;
57593;SDS011;43423;46.510;6.686;2023-12-28T01:34:48;7.82;;;4.10;;
57593;SDS011;43423;46.510;6.686;2023-12-28T01:37:13;7.07;;;4.45;;
57593;SDS011;43423;46.510;6.686;2023-12-28T01:39:39;10.10;;;4.60;;
57593;SDS011;43423;46.510;6.686;2023-12-28T01:42:05;7.82;;;4.20;;
57593;SDS011;43423;46.510;6.686;2023-12-28T01:44:30;8.10;;;4.90;;
57593;SDS011;43423;46.510;6.686;2023-12-28T01:46:56;8.52;;;4.05;;
57593;SDS011;43423;46.510;6.686;2023-12-28T01:49:22;8.75;;;5.00;;
57593;SDS011;43423;46.510;6.686;2023-12-28T01:51:49;8.27;;;3.88;;
57593;SDS011;43423;46.510;6.686;2023-12-28T01:54:15;10.65;;;4.60;;
57593;SDS011;43423;46.510;6.686;2023-12-28T01:56:42;8.05;;;3.85;;
57593;SDS011;43423;46.510;6.686;2023-12-28T01:59:09;7.63;;;4.10;;
57593;SDS011;43423;46.510;6.686;2023-12-28T02:01:35;8.38;;;4.95;;
57593;SDS011;43423;46.510;6.686;2023-12-28T02:04:01;11.63;;;5.78;;
57593;SDS011;43423;46.510;6.686;2023-12-28T02:06:27;11.63;;;5.65;;
57593;SDS011;43423;46.510;6.686;2023-12-28T02:08:53;13.10;;;6.22;;
57593;SDS011;43423;46.510;6.686;2023-12-28T02:11:19;16.88;;;5.72;;
57593;SDS011;43423;46.510;6.686;2023-12-28T02:13:45;9.32;;;5.75;;
57593;SDS011;43423;46.510;6.686;2023-12-28T02:16:13;9.05;;;5.35;;
57593;SDS011;43423;46.510;6.686;2023-12-28T02:18:43;10.27;;;5.47;;
57593;SDS011;43423;46.510;6.686;2023-12-28T02:21:13;8.65;;;5.30;;
57593;SDS011;43423;46.510;6.686;2023-12-28T02:23:39;11.75;;;5.38;;
57593;SDS011;43423;46.510;6.686;2023-12-28T02:26:04;8.23;;;4.53;;
57593;SDS011;43423;46.510;6.686;2023-12-28T02:28:30;9.95;;;4.88;;
57593;SDS011;43423;46.510;6.686;2023-12-28T02:30:56;8.73;;;5.53;;
57593;SDS011;43423;46.510;6.686;2023-12-28T02:35:55;7.15;;;4.30;;
57593;SDS011;43423;46.510;6.686;2023-12-28T02:38:24;9.77;;;4.32;;
57593;SDS011;43423;46.510;6.686;2023-12-28T02:40:51;8.15;;;4.57;;
57593;SDS011;43423;46.510;6.686;2023-12-28T02:43:18;10.27;;;4.78;;
57593;SDS011;43423;46.510;6.686;2023-12-28T02:45:43;8.38;;;4.40;;
57593;SDS011;43423;46.510;6.686;2023-12-28T02:48:09;8.18;;;4.18;;
57593;SDS011;43423;46.510;6.686;2023-12-28T02:50:35;11.85;;;5.03;;
57593;SDS011;43423;46.510;6.686;2023-12-28T02:53:01;7.82;;;4.07;;
57593;SDS011;43423;46.510;6.686;2023-12-28T02:55:28;6.75;;;3.78;;
57593;SDS011;43423;46.510;6.686;2023-12-28T02:57:55;6.45;;;4.05;;
57593;SDS011;43423;46.510;6.686;2023-12-28T03:00:24;11.15;;;4.05;;
57593;SDS011;43423;46.510;6.686;2023-12-28T03:02:50;5.40;;;3.50;;
57593;SDS011;43423;46.510;6.686;2023-12-28T03:05:16;8.68;;;3.88;;
57593;SDS011;43423;46.510;6.686;2023-12-28T03:07:42;7.55;;;4.28;;
57593;SDS011;43423;46.510;6.686;2023-12-28T03:10:08;8.88;;;3.70;;
57593;SDS011;43423;46.510;6.686;2023-12-28T03:12:34;6.45;;;3.28;;
57593;SDS011;43423;46.510;6.686;2023-12-28T03:14:59;6.18;;;3.88;;
57593;SDS011;43423;46.510;6.686;2023-12-28T03:17:25;7.03;;;3.70;;
57593;SDS011;43423;46.510;6.686;2023-12-28T03:19:51;10.30;;;4.32;;
57593;SDS011;43423;46.510;6.686;2023-12-28T03:22:17;8.82;;;4.35;;
57593;SDS011;43423;46.510;6.686;2023-12-28T03:24:42;7.78;;;3.38;;
57593;SDS011;43423;46.510;6.686;2023-12-28T03:27:08;7.50;;;3.90;;
57593;SDS011;43423;46.510;6.686;2023-12-28T03:29:34;11.65;;;3.80;;
57593;SDS011;43423;46.510;6.686;2023-12-28T03:32:00;10.40;;;3.65;;
57593;SDS011;43423;46.510;6.686;2023-12-28T03:34:26;7.57;;;3.92;;
57593;SDS011;43423;46.510;6.686;2023-12-28T03:36:54;7.18;;;3.63;;
57593;SDS011;43423;46.510;6.686;2023-12-28T03:39:20;9.30;;;4.20;;
57593;SDS011;43423;46.510;6.686;2023-12-28T03:41:47;5.32;;;3.42;;
57593;SDS011;43423;46.510;6.686;2023-12-28T03:44:12;9.85;;;4.15;;
57593;SDS011;43423;46.510;6.686;2023-12-28T03:46:38;6.15;;;3.10;;
57593;SDS011;43423;46.510;6.686;2023-12-28T03:49:04;5.65;;;3.80;;
57593;SDS011;43423;46.510;6.686;2023-12-28T03:51:30;10.05;;;4.03;;
57593;SDS011;43423;46.510;6.686;2023-12-28T03:53:55;7.13;;;3.75;;
57593;SDS011;43423;46.510;6.686;2023-12-28T03:56:22;5.57;;;3.42;;
57593;SDS011;43423;46.510;6.686;2023-12-28T03:58:49;5.00;;;3.15;;
57593;SDS011;43423;46.510;6.686;2023-12-28T04:01:17;6.18;;;3.53;;
57593;SDS011;43423;46.510;6.686;2023-12-28T04:03:43;7.50;;;3.85;;
57593;SDS011;43423;46.510;6.686;2023-12-28T04:06:09;7.43;;;4.18;;
57593;SDS011;43423;46.510;6.686;2023-12-28T04:08:35;4.60;;;3.22;;
57593;SDS011;43423;46.510;6.686;2023-12-28T04:11:01;6.75;;;3.50;;
57593;SDS011;43423;46.510;6.686;2023-12-28T04:13:26;6.97;;;4.00;;
57593;SDS011;43423;46.510;6.686;2023-12-28T04:15:52;7.13;;;3.90;;
57593;SDS011;43423;46.510;6.686;2023-12-28T04:18:17;6.68;;;3.80;;
57593;SDS011;43423;46.510;6.686;2023-12-28T04:20:43;7.88;;;3.88;;
57593;SDS011;43423;46.510;6.686;2023-12-28T04:23:10;4.65;;;3.28;;
57593;SDS011;43423;46.510;6.686;2023-12-28T04:25:36;9.77;;;3.90;;
57593;SDS011;43423;46.510;6.686;2023-12-28T04:28:02;8.88;;;4.05;;
57593;SDS011;43423;46.510;6.686;2023-12-28T04:30:27;8.68;;;4.07;;
57593;SDS011;43423;46.510;6.686;2023-12-28T04:32:53;6.32;;;3.28;;
57593;SDS011;43423;46.510;6.686;2023-12-28T04:35:19;7.50;;;3.88;;
57593;SDS011;43423;46.510;6.686;2023-12-28T04:37:45;4.88;;;3.53;;
57593;SDS011;43423;46.510;6.686;2023-12-28T04:40:10;4.55;;;3.47;;
57593;SDS011;43423;46.510;6.686;2023-12-28T04:42:36;6.68;;;3.38;;
57593;SDS011;43423;46.510;6.686;2023-12-28T04:45:02;7.25;;;3.42;;
57593;SDS011;43423;46.510;6.686;2023-12-28T04:47:28;5.93;;;3.33;;
57593;SDS011;43423;46.510;6.686;2023-12-28T04:49:54;7.47;;;3.70;;
57593;SDS011;43423;46.510;6.686;2023-12-28T04:52:19;6.50;;;3.03;;
57593;SDS011;43423;46.510;6.686;2023-12-28T04:54:45;6.68;;;3.20;;
57593;SDS011;43423;46.510;6.686;2023-12-28T04:57:11;5.72;;;3.47;;
57593;SDS011;43423;46.510;6.686;2023-12-28T04:59:39;10.00;;;3.80;;
57593;SDS011;43423;46.510;6.686;2023-12-28T05:02:05;9.40;;;3.80;;
57593;SDS011;43423;46.510;6.686;2023-12-28T05:04:31;9.85;;;4.03;;
57593;SDS011;43423;46.510;6.686;2023-12-28T05:06:57;10.00;;;4.57;;
57593;SDS011;43423;46.510;6.686;2023-12-28T05:09:22;10.60;;;4.53;;
57593;SDS011;43423;46.510;6.686;2023-12-28T05:11:48;10.15;;;4.32;;
57593;SDS011;43423;46.510;6.686;2023-12-28T05:14:14;10.98;;;4.43;;
57593;SDS011;43423;46.510;6.686;2023-12-28T05:16:39;11.15;;;4.03;;
57593;SDS011;43423;46.510;6.686;2023-12-28T05:19:05;11.82;;;4.45;;
57593;SDS011;43423;46.510;6.686;2023-12-28T05:21:30;10.75;;;4.82;;
57593;SDS011;43423;46.510;6.686;2023-12-28T05:23:56;8.68;;;4.28;;
57593;SDS011;43423;46.510;6.686;2023-12-28T05:26:21;8.93;;;3.88;;
57593;SDS011;43423;46.510;6.686;2023-12-28T05:28:48;9.40;;;4.20;;
57593;SDS011;43423;46.510;6.686;2023-12-28T05:31:14;8.13;;;4.85;;
57593;SDS011;43423;46.510;6.686;2023-12-28T05:33:39;8.95;;;4.10;;
57593;SDS011;43423;46.510;6.686;2023-12-28T05:36:05;10.00;;;4.32;;
57593;SDS011;43423;46.510;6.686;2023-12-28T05:38:31;10.95;;;4.00;;
57593;SDS011;43423;46.510;6.686;2023-12-28T05:40:57;14.77;;;5.25;;
57593;SDS011;43423;46.510;6.686;2023-12-28T05:43:23;9.93;;;5.03;;
57593;SDS011;43423;46.510;6.686;2023-12-28T05:45:48;11.60;;;4.47;;
57593;SDS011;43423;46.510;6.686;2023-12-28T05:48:14;6.82;;;3.85;;
57593;SDS011;43423;46.510;6.686;2023-12-28T05:50:40;8.48;;;4.72;;
57593;SDS011;43423;46.510;6.686;2023-12-28T05:53:06;9.25;;;4.20;;
57593;SDS011;43423;46.510;6.686;2023-12-28T05:55:31;7.65;;;3.97;;
57593;SDS011;43423;46.510;6.686;2023-12-28T05:57:57;6.05;;;3.13;;
57593;SDS011;43423;46.510;6.686;2023-12-28T06:00:22;8.32;;;4.10;;
57593;SDS011;43423;46.510;6.686;2023-12-28T06:02:48;6.90;;;3.78;;
57593;SDS011;43423;46.510;6.686;2023-12-28T06:05:17;5.82;;;3.47;;
57593;SDS011;43423;46.510;6.686;2023-12-28T06:07:43;7.72;;;4.30;;
57593;SDS011;43423;46.510;6.686;2023-12-28T06:10:09;5.85;;;3.83;;
57593;SDS011;43423;46.510;6.686;2023-12-28T06:12:35;7.03;;;3.30;;
57593;SDS011;43423;46.510;6.686;2023-12-28T06:15:01;5.88;;;3.65;;
57593;SDS011;43423;46.510;6.686;2023-12-28T06:17:28;4.53;;;3.05;;
57593;SDS011;43423;46.510;6.686;2023-12-28T06:19:54;6.68;;;3.75;;
57593;SDS011;43423;46.510;6.686;2023-12-28T06:22:19;6.90;;;3.40;;
57593;SDS011;43423;46.510;6.686;2023-12-28T06:24:45;6.95;;;3.35;;
57593;SDS011;43423;46.510;6.686;2023-12-28T06:27:11;5.65;;;3.22;;
57593;SDS011;43423;46.510;6.686;2023-12-28T06:29:36;6.13;;;3.53;;
57593;SDS011;43423;46.510;6.686;2023-12-28T06:32:02;7.32;;;3.83;;
57593;SDS011;43423;46.510;6.686;2023-12-28T06:34:28;8.27;;;3.38;;
57593;SDS011;43423;46.510;6.686;2023-12-28T06:36:54;6.55;;;3.42;;
57593;SDS011;43423;46.510;6.686;2023-12-28T06:39:19;4.82;;;3.17;;
57593;SDS011;43423;46.510;6.686;2023-12-28T06:41:48;5.25;;;3.05;;
57593;SDS011;43423;46.510;6.686;2023-12-28T06:44:14;7.22;;;3.90;;
57593;SDS011;43423;46.510;6.686;2023-12-28T06:46:41;4.90;;;3.45;;
57593;SDS011;43423;46.510;6.686;2023-12-28T06:49:06;5.03;;;2.95;;
57593;SDS011;43423;46.510;6.686;2023-12-28T06:51:32;6.40;;;3.45;;
57593;SDS011;43423;46.510;6.686;2023-12-28T06:53:58;8.88;;;4.30;;
57593;SDS011;43423;46.510;6.686;2023-12-28T06:56:24;7.00;;;3.80;;
57593;SDS011;43423;46.510;6.686;2023-12-28T06:58:50;6.53;;;3.20;;
57593;SDS011;43423;46.510;6.686;2023-12-28T07:01:16;6.03;;;3.20;;
57593;SDS011;43423;46.510;6.686;2023-12-28T07:03:41;6.47;;;3.20;;
57593;SDS011;43423;46.510;6.686;2023-12-28T07:06:07;6.18;;;3.20;;
57593;SDS011;43423;46.510;6.686;2023-12-28T07:08:33;7.28;;;3.58;;
57593;SDS011;43423;46.510;6.686;2023-12-28T07:10:59;4.60;;;3.05;;
57593;SDS011;43423;46.510;6.686;2023-12-28T07:13:25;7.15;;;3.67;;
57593;SDS011;43423;46.510;6.686;2023-12-28T07:15:51;11.18;;;3.63;;
57593;SDS011;43423;46.510;6.686;2023-12-28T07:18:17;5.85;;;3.90;;
57593;SDS011;43423;46.510;6.686;2023-12-28T07:20:43;6.45;;;3.42;;
57593;SDS011;43423;46.510;6.686;2023-12-28T07:23:08;9.20;;;3.47;;
57593;SDS011;43423;46.510;6.686;2023-12-28T07:25:37;8.30;;;3.53;;
57593;SDS011;43423;46.510;6.686;2023-12-28T07:28:02;6.88;;;3.30;;
57593;SDS011;43423;46.510;6.686;2023-12-28T07:30:28;8.05;;;3.00;;
57593;SDS011;43423;46.510;6.686;2023-12-28T07:32:54;7.10;;;4.13;;
57593;SDS011;43423;46.510;6.686;2023-12-28T07:35:20;9.07;;;4.13;;
57593;SDS011;43423;46.510;6.686;2023-12-28T07:37:46;5.95;;;3.78;;
57593;SDS011;43423;46.510;6.686;2023-12-28T07:40:12;7.15;;;3.90;;
57593;SDS011;43423;46.510;6.686;2023-12-28T07:42:38;9.93;;;3.25;;
57593;SDS011;43423;46.510;6.686;2023-12-28T07:45:04;7.50;;;4.30;;
57593;SDS011;43423;46.510;6.686;2023-12-28T07:47:30;6.80;;;3.28;;
57593;SDS011;43423;46.510;6.686;2023-12-28T07:49:56;7.07;;;3.58;;
57593;SDS011;43423;46.510;6.686;2023-12-28T07:52:21;8.88;;;3.67;;
57593;SDS011;43423;46.510;6.686;2023-12-28T07:54:47;4.13;;;2.88;;
57593;SDS011;43423;46.510;6.686;2023-12-28T07:57:12;8.75;;;3.75;;
57593;SDS011;43423;46.510;6.686;2023-12-28T07:59:38;8.00;;;3.67;;
57593;SDS011;43423;46.510;6.686;2023-12-28T08:02:04;6.47;;;3.10;;
57593;SDS011;43423;46.510;6.686;2023-12-28T08:04:30;5.72;;;3.00;;
57593;SDS011;43423;46.510;6.686;2023-12-28T08:06:57;4.95;;;2.92;;
57593;SDS011;43423;46.510;6.686;2023-12-28T08:09:22;8.02;;;3.58;;
57593;SDS011;43423;46.510;6.686;2023-12-28T08:11:48;8.43;;;3.85;;
57593;SDS011;43423;46.510;6.686;2023-12-28T08:14:14;5.88;;;3.70;;
57593;SDS011;43423;46.510;6.686;2023-12-28T08:16:39;5.75;;;2.78;;
57593;SDS011;43423;46.510;6.686;2023-12-28T08:19:06;5.57;;;3.28;;
57593;SDS011;43423;46.510;6.686;2023-12-28T08:21:31;4.40;;;3.08;;
57593;SDS011;43423;46.510;6.686;2023-12-28T08:23:57;7.28;;;3.25;;
57593;SDS011;43423;46.510;6.686;2023-12-28T08:26:22;5.80;;;3.25;;
57593;SDS011;43423;46.510;6.686;2023-12-28T08:28:48;6.43;;;3.35;;
57593;SDS011;43423;46.510;6.686;2023-12-28T08:31:14;4.43;;;3.08;;
57593;SDS011;43423;46.510;6.686;2023-12-28T08:33:40;7.20;;;3.53;;
57593;SDS011;43423;46.510;6.686;2023-12-28T08:36:09;11.50;;;3.65;;
57593;SDS011;43423;46.510;6.686;2023-12-28T08:38:35;7.88;;;3.70;;
57593;SDS011;43423;46.510;6.686;2023-12-28T08:41:00;4.07;;;2.60;;
57593;SDS011;43423;46.510;6.686;2023-12-28T08:43:29;4.60;;;3.08;;
57593;SDS011;43423;46.510;6.686;2023-12-28T08:45:54;5.57;;;3.55;;
57593;SDS011;43423;46.510;6.686;2023-12-28T08:48:20;6.53;;;2.92;;
57593;SDS011;43423;46.510;6.686;2023-12-28T08:50:46;5.90;;;2.90;;
57593;SDS011;43423;46.510;6.686;2023-12-28T08:53:12;5.72;;;2.97;;
57593;SDS011;43423;46.510;6.686;2023-12-28T08:55:37;6.90;;;3.00;;
57593;SDS011;43423;46.510;6.686;2023-12-28T08:58:03;3.97;;;2.80;;
57593;SDS011;43423;46.510;6.686;2023-12-28T09:00:28;3.90;;;2.80;;
57593;SDS011;43423;46.510;6.686;2023-12-28T09:02:54;6.13;;;2.72;;
57593;SDS011;43423;46.510;6.686;2023-12-28T09:05:20;5.28;;;2.78;;
57593;SDS011;43423;46.510;6.686;2023-12-28T09:07:46;3.55;;;2.38;;
57593;SDS011;43423;46.510;6.686;2023-12-28T09:10:12;6.43;;;2.97;;
57593;SDS011;43423;46.510;6.686;2023-12-28T09:12:39;4.75;;;2.72;;
57593;SDS011;43423;46.510;6.686;2023-12-28T09:15:06;6.35;;;3.08;;
57593;SDS011;43423;46.510;6.686;2023-12-28T09:17:32;4.43;;;2.97;;
57593;SDS011;43423;46.510;6.686;2023-12-28T09:19:58;4.22;;;2.88;;
57593;SDS011;43423;46.510;6.686;2023-12-28T09:22:24;5.63;;;2.92;;
57593;SDS011;43423;46.510;6.686;2023-12-28T09:24:50;4.97;;;2.78;;
57593;SDS011;43423;46.510;6.686;2023-12-28T09:27:16;6.47;;;3.17;;
57593;SDS011;43423;46.510;6.686;2023-12-28T09:29:42;4.78;;;3.20;;
57593;SDS011;43423;46.510;6.686;2023-12-28T09:32:07;3.92;;;3.08;;
57593;SDS011;43423;46.510;6.686;2023-12-28T09:34:33;3.30;;;3.00;;
57593;SDS011;43423;46.510;6.686;2023-12-28T09:36:59;5.70;;;2.97;;
57593;SDS011;43423;46.510;6.686;2023-12-28T09:39:24;5.35;;;3.22;;
57593;SDS011;43423;46.510;6.686;2023-12-28T09:41:54;5.22;;;3.38;;
57593;SDS011;43423;46.510;6.686;2023-12-28T09:44:25;7.93;;;3.58;;
57593;SDS011;43423;46.510;6.686;2023-12-28T09:46:51;6.07;;;3.47;;
57593;SDS011;43423;46.510;6.686;2023-12-28T09:49:20;4.63;;;3.00;;
57593;SDS011;43423;46.510;6.686;2023-12-28T09:51:47;6.90;;;3.55;;
57593;SDS011;43423;46.510;6.686;2023-12-28T09:54:13;6.38;;;3.65;;
57593;SDS011;43423;46.510;6.686;2023-12-28T09:56:39;8.30;;;3.13;;
57593;SDS011;43423;46.510;6.686;2023-12-28T09:59:06;5.82;;;3.13;;
57593;SDS011;43423;46.510;6.686;2023-12-28T10:01:32;4.05;;;2.55;;
57593;SDS011;43423;46.510;6.686;2023-12-28T10:03:59;6.47;;;3.72;;
57593;SDS011;43423;46.510;6.686;2023-12-28T10:06:25;5.57;;;3.47;;
57593;SDS011;43423;46.510;6.686;2023-12-28T10:08:51;5.93;;;3.30;;
57593;SDS011;43423;46.510;6.686;2023-12-28T10:11:17;6.50;;;3.38;;
57593;SDS011;43423;46.510;6.686;2023-12-28T10:13:44;4.97;;;2.58;;
57593;SDS011;43423;46.510;6.686;2023-12-28T10:16:10;8.80;;;3.45;;
57593;SDS011;43423;46.510;6.686;2023-12-28T10:18:40;6.43;;;2.95;;
57593;SDS011;43423;46.510;6.686;2023-12-28T10:21:07;4.55;;;3.33;;
57593;SDS011;43423;46.510;6.686;2023-12-28T10:23:34;6.07;;;3.30;;
57593;SDS011;43423;46.510;6.686;2023-12-28T10:25:59;6.03;;;3.53;;
57593;SDS011;43423;46.510;6.686;2023-12-28T10:28:25;5.45;;;3.25;;
57593;SDS011;43423;46.510;6.686;2023-12-28T10:30:54;5.60;;;3.53;;
57593;SDS011;43423;46.510;6.686;2023-12-28T10:33:21;4.00;;;3.00;;
57593;SDS011;43423;46.510;6.686;2023-12-28T10:35:46;6.60;;;3.45;;
57593;SDS011;43423;46.510;6.686;2023-12-28T10:38:16;4.60;;;3.22;;
57593;SDS011;43423;46.510;6.686;2023-12-28T10:40:42;5.97;;;3.50;;
57593;SDS011;43423;46.510;6.686;2023-12-28T10:43:10;6.43;;;3.53;;
57593;SDS011;43423;46.510;6.686;2023-12-28T10:45:39;7.82;;;3.78;;
57593;SDS011;43423;46.510;6.686;2023-12-28T10:48:06;3.85;;;3.08;;
57593;SDS011;43423;46.510;6.686;2023-12-28T10:50:37;6.93;;;3.65;;
57593;SDS011;43423;46.510;6.686;2023-12-28T10:53:24;5.68;;;3.05;;
57593;SDS011;43423;46.510;6.686;2023-12-28T11:01:39;6.07;;;3.58;;
57593;SDS011;43423;46.510;6.686;2023-12-28T11:06:54;6.30;;;3.17;;
57593;SDS011;43423;46.510;6.686;2023-12-28T11:09:20;4.70;;;3.45;;
57593;SDS011;43423;46.510;6.686;2023-12-28T11:11:47;7.15;;;3.60;;
57593;SDS011;43423;46.510;6.686;2023-12-28T11:14:16;6.30;;;3.30;;
57593;SDS011;43423;46.510;6.686;2023-12-28T11:16:43;5.90;;;3.42;;
57593;SDS011;43423;46.510;6.686;2023-12-28T11:19:08;7.43;;;3.92;;
57593;SDS011;43423;46.510;6.686;2023-12-28T11:21:35;4.90;;;2.95;;
57593;SDS011;43423;46.510;6.686;2023-12-28T11:24:01;6.55;;;3.95;;
57593;SDS011;43423;46.510;6.686;2023-12-28T11:26:27;7.45;;;3.47;;
57593;SDS011;43423;46.510;6.686;2023-12-28T11:29:00;5.47;;;3.05;;
57593;SDS011;43423;46.510;6.686;2023-12-28T11:31:27;8.80;;;3.63;;
57593;SDS011;43423;46.510;6.686;2023-12-28T11:33:52;7.13;;;3.65;;
57593;SDS011;43423;46.510;6.686;2023-12-28T11:36:21;8.68;;;3.95;;
57593;SDS011;43423;46.510;6.686;2023-12-28T11:38:50;6.38;;;3.45;;
57593;SDS011;43423;46.510;6.686;2023-12-28T11:41:20;8.65;;;3.08;;
57593;SDS011;43423;46.510;6.686;2023-12-28T11:43:55;5.32;;;3.35;;
57593;SDS011;43423;46.510;6.686;2023-12-28T11:46:21;8.07;;;3.03;;
57593;SDS011;43423;46.510;6.686;2023-12-28T11:48:47;5.03;;;3.20;;
57593;SDS011;43423;46.510;6.686;2023-12-28T11:51:13;5.38;;;2.97;;
57593;SDS011;43423;46.510;6.686;2023-12-28T11:53:39;9.63;;;3.50;;
57593;SDS011;43423;46.510;6.686;2023-12-28T11:56:06;7.72;;;4.13;;
57593;SDS011;43423;46.510;6.686;2023-12-28T11:58:35;6.10;;;3.40;;
57593;SDS011;43423;46.510;6.686;2023-12-28T12:01:01;7.40;;;3.60;;
57593;SDS011;43423;46.510;6.686;2023-12-28T12:03:27;7.25;;;3.50;;
57593;SDS011;43423;46.510;6.686;2023-12-28T12:05:57;4.95;;;3.03;;
57593;SDS011;43423;46.510;6.686;2023-12-28T12:08:23;7.57;;;3.40;;
57593;SDS011;43423;46.510;6.686;2023-12-28T12:10:59;5.38;;;3.20;;
57593;SDS011;43423;46.510;6.686;2023-12-28T12:13:30;4.15;;;3.10;;
57593;SDS011;43423;46.510;6.686;2023-12-28T12:15:56;6.88;;;3.20;;
57593;SDS011;43423;46.510;6.686;2023-12-28T12:18:22;7.47;;;2.92;;
57593;SDS011;43423;46.510;6.686;2023-12-28T12:20:49;10.85;;;3.55;;
57593;SDS011;43423;46.510;6.686;2023-12-28T12:23:15;5.63;;;3.33;;
57593;SDS011;43423;46.510;6.686;2023-12-28T12:25:41;6.68;;;3.30;;
57593;SDS011;43423;46.510;6.686;2023-12-28T12:28:07;5.00;;;2.72;;
57593;SDS011;43423;46.510;6.686;2023-12-28T12:30:34;6.00;;;3.53;;
57593;SDS011;43423;46.510;6.686;2023-12-28T12:33:00;5.40;;;2.95;;
57593;SDS011;43423;46.510;6.686;2023-12-28T12:35:25;8.52;;;3.22;;
57593;SDS011;43423;46.510;6.686;2023-12-28T12:37:52;9.05;;;3.40;;
57593;SDS011;43423;46.510;6.686;2023-12-28T12:40:19;4.38;;;2.85;;
57593;SDS011;43423;46.510;6.686;2023-12-28T12:42:52;5.47;;;2.92;;
57593;SDS011;43423;46.510;6.686;2023-12-28T12:45:19;10.85;;;3.55;;
57593;SDS011;43423;46.510;6.686;2023-12-28T12:47:46;8.20;;;3.15;;
57593;SDS011;43423;46.510;6.686;2023-12-28T12:50:11;7.68;;;3.47;;
57593;SDS011;43423;46.510;6.686;2023-12-28T12:52:38;5.05;;;2.72;;
57593;SDS011;43423;46.510;6.686;2023-12-28T12:55:04;5.40;;;2.97;;
57593;SDS011;43423;46.510;6.686;2023-12-28T12:57:30;5.55;;;3.00;;
57593;SDS011;43423;46.510;6.686;2023-12-28T12:59:56;6.00;;;3.03;;
57593;SDS011;43423;46.510;6.686;2023-12-28T13:02:22;7.35;;;2.90;;
57593;SDS011;43423;46.510;6.686;2023-12-28T13:04:52;6.00;;;3.45;;
57593;SDS011;43423;46.510;6.686;2023-12-28T13:07:19;4.65;;;2.42;;
57593;SDS011;43423;46.510;6.686;2023-12-28T13:09:44;5.43;;;2.38;;
57593;SDS011;43423;46.510;6.686;2023-12-28T13:12:10;3.80;;;2.03;;
57593;SDS011;43423;46.510;6.686;2023-12-28T13:14:36;4.70;;;2.08;;
57593;SDS011;43423;46.510;6.686;2023-12-28T13:17:01;4.47;;;2.63;;
57593;SDS011;43423;46.510;6.686;2023-12-28T13:19:27;5.25;;;3.20;;
57593;SDS011;43423;46.510;6.686;2023-12-28T13:21:53;5.80;;;2.88;;
57593;SDS011;43423;46.510;6.686;2023-12-28T13:24:19;3.65;;;2.45;;
57593;SDS011;43423;46.510;6.686;2023-12-28T13:26:44;4.28;;;2.55;;
57593;SDS011;43423;46.510;6.686;2023-12-28T13:29:10;4.40;;;2.47;;
57593;SDS011;43423;46.510;6.686;2023-12-28T13:31:35;5.97;;;2.67;;
57593;SDS011;43423;46.510;6.686;2023-12-28T13:34:01;4.60;;;2.53;;
57593;SDS011;43423;46.510;6.686;2023-12-28T13:36:27;5.75;;;2.33;;
57593;SDS011;43423;46.510;6.686;2023-12-28T13:38:53;4.32;;;2.20;;
57593;SDS011;43423;46.510;6.686;2023-12-28T13:41:19;3.83;;;2.70;;
57593;SDS011;43423;46.510;6.686;2023-12-28T13:43:45;6.00;;;3.13;;
57593;SDS011;43423;46.510;6.686;2023-12-28T13:46:11;4.78;;;3.33;;
57593;SDS011;43423;46.510;6.686;2023-12-28T13:48:37;4.93;;;3.20;;
57593;SDS011;43423;46.510;6.686;2023-12-28T13:51:05;8.13;;;3.00;;
57593;SDS011;43423;46.510;6.686;2023-12-28T13:53:31;3.88;;;2.63;;
57593;SDS011;43423;46.510;6.686;2023-12-28T13:56:01;4.72;;;2.78;;
57593;SDS011;43423;46.510;6.686;2023-12-28T13:58:26;9.15;;;3.20;;
57593;SDS011;43423;46.510;6.686;2023-12-28T14:00:52;4.93;;;2.63;;
57593;SDS011;43423;46.510;6.686;2023-12-28T14:03:18;4.88;;;3.25;;
57593;SDS011;43423;46.510;6.686;2023-12-28T14:05:44;3.78;;;2.65;;
57593;SDS011;43423;46.510;6.686;2023-12-28T14:08:09;6.75;;;2.50;;
57593;SDS011;43423;46.510;6.686;2023-12-28T14:10:35;7.93;;;3.47;;
57593;SDS011;43423;46.510;6.686;2023-12-28T14:13:03;5.00;;;2.33;;
57593;SDS011;43423;46.510;6.686;2023-12-28T14:15:30;3.05;;;2.28;;
57593;SDS011;43423;46.510;6.686;2023-12-28T14:17:56;7.05;;;2.58;;
57593;SDS011;43423;46.510;6.686;2023-12-28T14:20:22;4.85;;;2.85;;
57593;SDS011;43423;46.510;6.686;2023-12-28T14:22:47;11.98;;;3.42;;
57593;SDS011;43423;46.510;6.686;2023-12-28T14:25:13;4.57;;;2.55;;
57593;SDS011;43423;46.510;6.686;2023-12-28T14:27:39;4.75;;;2.92;;
57593;SDS011;43423;46.510;6.686;2023-12-28T14:30:06;5.35;;;2.80;;
57593;SDS011;43423;46.510;6.686;2023-12-28T14:32:34;4.32;;;1.83;;
57593;SDS011;43423;46.510;6.686;2023-12-28T14:35:00;3.72;;;2.22;;
57593;SDS011;43423;46.510;6.686;2023-12-28T14:37:26;4.65;;;2.40;;
57593;SDS011;43423;46.510;6.686;2023-12-28T14:39:52;3.00;;;2.45;;
57593;SDS011;43423;46.510;6.686;2023-12-28T14:42:17;3.08;;;2.10;;
57593;SDS011;43423;46.510;6.686;2023-12-28T14:44:43;3.90;;;2.20;;
57593;SDS011;43423;46.510;6.686;2023-12-28T14:47:08;4.63;;;2.78;;
57593;SDS011;43423;46.510;6.686;2023-12-28T14:49:34;7.15;;;2.67;;